sensor_id;sensor_type;location;lat;lon;timestamp;pressure;altitude;pressure_sealevel;temperature;humidity
59110;BME280;44895;47.438;18.978;2022-09-03T00:02:05;100112.44;;;13.51;100.00
59110;BME280;44895;47.438;18.978;2022-09-03T00:05:13;100120.56;;;13.42;100.00
59110;BME280;44895;47.438;18.978;2022-09-03T00:08:26;100116.63;;;13.34;100.00
59110;BME280;44895;47.438;18.978;2022-09-03T00:11:47;100123.97;;;13.48;100.00
59110;BME280;44895;47.438;18.978;2022-09-03T00:15:09;100114.50;;;13.54;100.00
59110;BME280;44895;47.438;18.978;2022-09-03T00:18:17;100118.53;;;13.48;100.00
59110;BME280;44895;47.438;18.978;2022-09-03T00:24:57;100116.25;;;13.50;100.00
59110;BME280;44895;47.438;18.978;2022-09-03T00:28:08;100108.84;;;13.42;100.00
59110;BME280;44895;47.438;18.978;2022-09-03T00:31:36;100115.59;;;13.44;100.00
59110;BME280;44895;47.438;18.978;2022-09-03T00:34:49;100114.22;;;13.10;100.00
59110;BME280;44895;47.438;18.978;2022-09-03T00:37:54;100115.59;;;13.21;100.00
59110;BME280;44895;47.438;18.978;2022-09-03T00:51:53;100109.97;;;13.41;100.00
59110;BME280;44895;47.438;18.978;2022-09-03T00:55:31;100117.06;;;13.28;100.00
59110;BME280;44895;47.438;18.978;2022-09-03T01:02:14;100118.38;;;13.30;100.00
59110;BME280;44895;47.438;18.978;2022-09-03T01:12:14;100120.78;;;13.09;100.00
59110;BME280;44895;47.438;18.978;2022-09-03T01:15:27;100127.72;;;13.15;100.00
59110;BME280;44895;47.438;18.978;2022-09-03T01:25:52;100139.81;;;13.23;100.00
59110;BME280;44895;47.438;18.978;2022-09-03T01:29:12;100144.75;;;13.21;100.00
59110;BME280;44895;47.438;18.978;2022-09-03T01:36:00;100135.47;;;12.99;100.00
59110;BME280;44895;47.438;18.978;2022-09-03T01:46:32;100138.06;;;13.04;100.00
59110;BME280;44895;47.438;18.978;2022-09-03T01:49:56;100137.19;;;12.95;100.00
59110;BME280;44895;47.438;18.978;2022-09-03T01:53:22;100142.84;;;12.99;100.00
59110;BME280;44895;47.438;18.978;2022-09-03T02:00:11;100141.09;;;13.03;100.00
59110;BME280;44895;47.438;18.978;2022-09-03T02:03:16;100136.28;;;13.00;100.00
59110;BME280;44895;47.438;18.978;2022-09-03T02:06:19;100142.13;;;12.93;100.00
59110;BME280;44895;47.438;18.978;2022-09-03T02:09:23;100140.56;;;12.92;100.00
59110;BME280;44895;47.438;18.978;2022-09-03T02:12:29;100143.16;;;12.97;100.00
59110;BME280;44895;47.438;18.978;2022-09-03T02:15:41;100147.72;;;12.88;100.00
59110;BME280;44895;47.438;18.978;2022-09-03T02:18:49;100148.19;;;12.67;100.00
59110;BME280;44895;47.438;18.978;2022-09-03T02:21:55;100148.06;;;12.72;100.00
59110;BME280;44895;47.438;18.978;2022-09-03T02:24:59;100145.81;;;12.88;100.00
59110;BME280;44895;47.438;18.978;2022-09-03T02:28:05;100140.75;;;12.82;100.00
59110;BME280;44895;47.438;18.978;2022-09-03T02:31:09;100143.25;;;12.69;100.00
59110;BME280;44895;47.438;18.978;2022-09-03T02:34:13;100150.25;;;12.84;100.00
59110;BME280;44895;47.438;18.978;2022-09-03T02:37:18;100148.03;;;12.86;100.00
59110;BME280;44895;47.438;18.978;2022-09-03T02:40:22;100151.47;;;12.92;100.00
59110;BME280;44895;47.438;18.978;2022-09-03T02:43:31;100147.50;;;12.84;100.00
59110;BME280;44895;47.438;18.978;2022-09-03T02:46:45;100149.00;;;12.91;100.00
59110;BME280;44895;47.438;18.978;2022-09-03T02:49:50;100149.22;;;12.94;100.00
59110;BME280;44895;47.438;18.978;2022-09-03T02:52:54;100150.31;;;12.93;100.00
59110;BME280;44895;47.438;18.978;2022-09-03T02:55:59;100147.91;;;12.92;100.00
59110;BME280;44895;47.438;18.978;2022-09-03T02:59:05;100151.75;;;12.91;100.00
59110;BME280;44895;47.438;18.978;2022-09-03T03:02:10;100150.66;;;12.78;100.00
59110;BME280;44895;47.438;18.978;2022-09-03T03:05:22;100157.44;;;12.80;100.00
59110;BME280;44895;47.438;18.978;2022-09-03T03:08:27;100145.06;;;12.60;100.00
59110;BME280;44895;47.438;18.978;2022-09-03T03:11:32;100135.28;;;12.59;100.00
59110;BME280;44895;47.438;18.978;2022-09-03T03:14:36;100153.97;;;12.52;100.00
59110;BME280;44895;47.438;18.978;2022-09-03T03:17:39;100151.81;;;12.63;100.00
59110;BME280;44895;47.438;18.978;2022-09-03T03:20:43;100147.66;;;12.65;100.00
59110;BME280;44895;47.438;18.978;2022-09-03T03:23:47;100150.13;;;12.53;100.00
59110;BME280;44895;47.438;18.978;2022-09-03T03:26:54;100163.75;;;12.53;100.00
59110;BME280;44895;47.438;18.978;2022-09-03T03:30:00;100170.78;;;12.54;100.00
59110;BME280;44895;47.438;18.978;2022-09-03T03:33:05;100162.94;;;12.52;100.00
59110;BME280;44895;47.438;18.978;2022-09-03T03:36:14;100163.13;;;12.56;100.00
59110;BME280;44895;47.438;18.978;2022-09-03T03:39:18;100158.59;;;12.37;100.00
59110;BME280;44895;47.438;18.978;2022-09-03T03:42:23;100169.59;;;12.04;100.00
59110;BME280;44895;47.438;18.978;2022-09-03T03:45:26;100170.72;;;12.31;100.00
59110;BME280;44895;47.438;18.978;2022-09-03T03:48:31;100174.34;;;12.40;100.00
59110;BME280;44895;47.438;18.978;2022-09-03T03:51:35;100178.59;;;12.33;100.00
59110;BME280;44895;47.438;18.978;2022-09-03T03:54:40;100176.75;;;12.42;100.00
59110;BME280;44895;47.438;18.978;2022-09-03T03:57:44;100172.22;;;12.37;100.00
59110;BME280;44895;47.438;18.978;2022-09-03T04:00:50;100175.25;;;12.36;100.00
59110;BME280;44895;47.438;18.978;2022-09-03T04:03:55;100183.63;;;12.39;100.00
59110;BME280;44895;47.438;18.978;2022-09-03T04:06:59;100184.63;;;12.44;100.00
59110;BME280;44895;47.438;18.978;2022-09-03T04:10:03;100179.47;;;12.42;100.00
59110;BME280;44895;47.438;18.978;2022-09-03T04:13:08;100189.38;;;12.38;100.00
59110;BME280;44895;47.438;18.978;2022-09-03T04:16:15;100192.00;;;12.43;100.00
59110;BME280;44895;47.438;18.978;2022-09-03T04:19:21;100191.59;;;12.36;100.00
59110;BME280;44895;47.438;18.978;2022-09-03T04:22:27;100195.81;;;12.42;100.00
59110;BME280;44895;47.438;18.978;2022-09-03T04:25:31;100190.47;;;12.37;100.00
59110;BME280;44895;47.438;18.978;2022-09-03T04:28:35;100195.31;;;12.40;100.00
59110;BME280;44895;47.438;18.978;2022-09-03T04:31:39;100192.69;;;12.35;100.00
59110;BME280;44895;47.438;18.978;2022-09-03T04:35:03;100203.41;;;12.45;100.00
59110;BME280;44895;47.438;18.978;2022-09-03T04:38:06;100201.16;;;12.47;100.00
59110;BME280;44895;47.438;18.978;2022-09-03T04:41:13;100206.81;;;12.51;100.00
59110;BME280;44895;47.438;18.978;2022-09-03T04:44:17;100211.38;;;12.55;100.00
59110;BME280;44895;47.438;18.978;2022-09-03T04:47:20;100213.06;;;12.65;100.00
59110;BME280;44895;47.438;18.978;2022-09-03T04:50:25;100205.41;;;12.67;100.00
59110;BME280;44895;47.438;18.978;2022-09-03T04:53:37;100209.31;;;12.75;100.00
59110;BME280;44895;47.438;18.978;2022-09-03T04:56:42;100202.03;;;12.84;100.00
59110;BME280;44895;47.438;18.978;2022-09-03T04:59:45;100204.25;;;12.96;100.00
59110;BME280;44895;47.438;18.978;2022-09-03T05:02:49;100204.66;;;12.89;100.00
59110;BME280;44895;47.438;18.978;2022-09-03T05:05:55;100210.72;;;12.86;100.00
59110;BME280;44895;47.438;18.978;2022-09-03T05:08:59;100207.03;;;13.05;100.00
59110;BME280;44895;47.438;18.978;2022-09-03T05:12:03;100215.06;;;13.24;100.00
59110;BME280;44895;47.438;18.978;2022-09-03T05:15:07;100205.69;;;13.16;100.00
59110;BME280;44895;47.438;18.978;2022-09-03T05:18:10;100209.72;;;13.19;100.00
59110;BME280;44895;47.438;18.978;2022-09-03T05:21:16;100212.50;;;13.42;100.00
59110;BME280;44895;47.438;18.978;2022-09-03T05:24:19;100208.63;;;13.57;100.00
59110;BME280;44895;47.438;18.978;2022-09-03T05:27:23;100204.69;;;13.49;100.00
59110;BME280;44895;47.438;18.978;2022-09-03T05:30:27;100208.34;;;13.90;100.00
59110;BME280;44895;47.438;18.978;2022-09-03T05:33:35;100210.47;;;14.01;100.00
59110;BME280;44895;47.438;18.978;2022-09-03T05:36:40;100209.03;;;14.04;100.00
59110;BME280;44895;47.438;18.978;2022-09-03T05:39:43;100203.34;;;14.23;100.00
59110;BME280;44895;47.438;18.978;2022-09-03T05:42:53;100205.94;;;14.28;100.00
59110;BME280;44895;47.438;18.978;2022-09-03T05:49:05;100214.28;;;14.72;100.00
59110;BME280;44895;47.438;18.978;2022-09-03T05:52:09;100207.56;;;14.87;100.00
59110;BME280;44895;47.438;18.978;2022-09-03T05:55:13;100218.69;;;15.08;100.00
59110;BME280;44895;47.438;18.978;2022-09-03T05:58:17;100219.81;;;15.33;100.00
59110;BME280;44895;47.438;18.978;2022-09-03T06:01:26;100221.75;;;15.59;100.00
59110;BME280;44895;47.438;18.978;2022-09-03T06:04:31;100206.41;;;15.76;100.00
59110;BME280;44895;47.438;18.978;2022-09-03T06:07:35;100206.88;;;15.95;100.00
59110;BME280;44895;47.438;18.978;2022-09-03T06:10:40;100214.84;;;16.18;100.00
59110;BME280;44895;47.438;18.978;2022-09-03T06:13:44;100217.38;;;16.32;100.00
59110;BME280;44895;47.438;18.978;2022-09-03T06:16:48;100208.88;;;16.55;100.00
59110;BME280;44895;47.438;18.978;2022-09-03T06:19:52;100216.13;;;16.80;100.00
59110;BME280;44895;47.438;18.978;2022-09-03T06:22:56;100205.72;;;17.04;100.00
59110;BME280;44895;47.438;18.978;2022-09-03T06:26:12;100205.78;;;17.50;100.00
59110;BME280;44895;47.438;18.978;2022-09-03T06:29:16;100208.28;;;18.59;100.00
59110;BME280;44895;47.438;18.978;2022-09-03T06:32:22;100206.28;;;19.94;96.92
59110;BME280;44895;47.438;18.978;2022-09-03T06:35:26;100203.25;;;21.18;86.18
59110;BME280;44895;47.438;18.978;2022-09-03T06:38:30;100193.03;;;22.05;77.84
59110;BME280;44895;47.438;18.978;2022-09-03T06:41:35;100192.84;;;22.67;72.26
59110;BME280;44895;47.438;18.978;2022-09-03T06:44:40;100191.53;;;23.49;66.49
59110;BME280;44895;47.438;18.978;2022-09-03T06:47:44;100182.56;;;24.04;63.07
59110;BME280;44895;47.438;18.978;2022-09-03T06:50:57;100181.00;;;24.62;59.28
59110;BME280;44895;47.438;18.978;2022-09-03T06:54:03;100188.06;;;25.19;58.84
59110;BME280;44895;47.438;18.978;2022-09-03T06:57:08;100195.75;;;25.62;55.50
59110;BME280;44895;47.438;18.978;2022-09-03T07:00:12;100185.38;;;25.44;56.14
59110;BME280;44895;47.438;18.978;2022-09-03T07:03:16;100196.84;;;24.58;56.21
59110;BME280;44895;47.438;18.978;2022-09-03T07:06:23;100190.16;;;24.14;57.96
59110;BME280;44895;47.438;18.978;2022-09-03T07:09:27;100187.81;;;24.16;58.36
59110;BME280;44895;47.438;18.978;2022-09-03T07:12:31;100195.22;;;23.64;59.61
59110;BME280;44895;47.438;18.978;2022-09-03T07:15:39;100184.38;;;23.85;58.52
59110;BME280;44895;47.438;18.978;2022-09-03T07:18:43;100190.84;;;23.59;60.59
59110;BME280;44895;47.438;18.978;2022-09-03T07:21:47;100186.50;;;23.61;59.60
59110;BME280;44895;47.438;18.978;2022-09-03T07:24:51;100183.22;;;23.49;60.25
59110;BME280;44895;47.438;18.978;2022-09-03T07:27:55;100178.31;;;23.76;61.87
59110;BME280;44895;47.438;18.978;2022-09-03T07:31:03;100173.59;;;23.76;57.46
59110;BME280;44895;47.438;18.978;2022-09-03T07:34:11;100182.59;;;23.28;57.90
59110;BME280;44895;47.438;18.978;2022-09-03T07:37:15;100184.06;;;23.19;58.50
59110;BME280;44895;47.438;18.978;2022-09-03T07:40:20;100184.50;;;23.24;58.00
59110;BME280;44895;47.438;18.978;2022-09-03T07:43:31;100193.97;;;23.20;58.47
59110;BME280;44895;47.438;18.978;2022-09-03T07:46:37;100187.41;;;23.05;59.29
59110;BME280;44895;47.438;18.978;2022-09-03T07:49:40;100193.56;;;22.91;57.43
59110;BME280;44895;47.438;18.978;2022-09-03T07:52:44;100196.88;;;23.04;58.56
59110;BME280;44895;47.438;18.978;2022-09-03T07:55:49;100201.41;;;22.35;58.68
59110;BME280;44895;47.438;18.978;2022-09-03T07:58:53;100192.31;;;22.58;58.19
59110;BME280;44895;47.438;18.978;2022-09-03T08:01:59;100199.56;;;21.93;59.15
59110;BME280;44895;47.438;18.978;2022-09-03T08:05:03;100196.88;;;22.00;60.12
59110;BME280;44895;47.438;18.978;2022-09-03T08:08:07;100201.25;;;22.24;58.52
59110;BME280;44895;47.438;18.978;2022-09-03T08:11:16;100202.09;;;22.52;59.46
59110;BME280;44895;47.438;18.978;2022-09-03T08:14:21;100191.78;;;22.48;59.14
59110;BME280;44895;47.438;18.978;2022-09-03T08:17:25;100199.44;;;22.36;59.01
59110;BME280;44895;47.438;18.978;2022-09-03T08:20:29;100201.19;;;21.74;59.99
59110;BME280;44895;47.438;18.978;2022-09-03T08:23:38;100200.22;;;21.86;61.37
59110;BME280;44895;47.438;18.978;2022-09-03T08:26:42;100191.06;;;21.82;60.40
59110;BME280;44895;47.438;18.978;2022-09-03T08:29:45;100190.44;;;21.92;60.21
59110;BME280;44895;47.438;18.978;2022-09-03T08:32:51;100196.97;;;22.04;60.79
59110;BME280;44895;47.438;18.978;2022-09-03T08:35:55;100197.44;;;21.86;61.46
59110;BME280;44895;47.438;18.978;2022-09-03T08:39:00;100204.50;;;21.83;60.87
59110;BME280;44895;47.438;18.978;2022-09-03T08:42:38;100205.31;;;21.84;61.29
59110;BME280;44895;47.438;18.978;2022-09-03T08:45:44;100205.13;;;22.43;59.94
59110;BME280;44895;47.438;18.978;2022-09-03T08:48:47;100196.66;;;22.32;60.94
59110;BME280;44895;47.438;18.978;2022-09-03T08:51:54;100202.88;;;22.02;62.48
59110;BME280;44895;47.438;18.978;2022-09-03T08:55:40;100199.34;;;21.82;60.62
59110;BME280;44895;47.438;18.978;2022-09-03T08:58:47;100194.44;;;21.95;61.69
59110;BME280;44895;47.438;18.978;2022-09-03T09:02:00;100195.97;;;21.92;60.71
59110;BME280;44895;47.438;18.978;2022-09-03T09:05:16;100195.94;;;22.12;61.91
59110;BME280;44895;47.438;18.978;2022-09-03T09:08:34;100188.59;;;22.23;60.60
59110;BME280;44895;47.438;18.978;2022-09-03T09:15:10;100178.75;;;22.03;61.20
59110;BME280;44895;47.438;18.978;2022-09-03T09:18:28;100172.13;;;22.07;61.22
59110;BME280;44895;47.438;18.978;2022-09-03T09:24:52;100180.63;;;21.95;60.89
59110;BME280;44895;47.438;18.978;2022-09-03T09:28:00;100167.22;;;21.97;59.73
59110;BME280;44895;47.438;18.978;2022-09-03T09:31:11;100171.44;;;22.14;61.02
59110;BME280;44895;47.438;18.978;2022-09-03T09:34:17;100169.91;;;22.16;59.27
59110;BME280;44895;47.438;18.978;2022-09-03T09:37:21;100163.28;;;22.21;59.16
59110;BME280;44895;47.438;18.978;2022-09-03T09:40:32;100169.88;;;22.13;59.06
59110;BME280;44895;47.438;18.978;2022-09-03T09:43:36;100169.31;;;21.80;60.60
59110;BME280;44895;47.438;18.978;2022-09-03T09:46:41;100173.09;;;22.19;61.47
59110;BME280;44895;47.438;18.978;2022-09-03T09:52:59;100180.16;;;22.39;58.39
59110;BME280;44895;47.438;18.978;2022-09-03T09:56:03;100181.34;;;22.38;58.22
59110;BME280;44895;47.438;18.978;2022-09-03T09:59:08;100177.41;;;22.16;56.21
59110;BME280;44895;47.438;18.978;2022-09-03T10:02:23;100169.91;;;22.16;56.45
59110;BME280;44895;47.438;18.978;2022-09-03T10:05:31;100169.56;;;22.18;57.62
59110;BME280;44895;47.438;18.978;2022-09-03T10:08:41;100177.97;;;22.48;59.14
59110;BME280;44895;47.438;18.978;2022-09-03T10:12:21;100169.16;;;22.43;57.83
59110;BME280;44895;47.438;18.978;2022-09-03T10:15:34;100171.56;;;22.44;57.57
59110;BME280;44895;47.438;18.978;2022-09-03T10:18:45;100170.38;;;22.45;57.38
59110;BME280;44895;47.438;18.978;2022-09-03T10:22:04;100167.91;;;22.67;57.57
59110;BME280;44895;47.438;18.978;2022-09-03T10:25:13;100166.31;;;22.66;55.81
59110;BME280;44895;47.438;18.978;2022-09-03T10:28:23;100171.22;;;22.76;57.57
59110;BME280;44895;47.438;18.978;2022-09-03T10:48:12;100152.97;;;22.72;55.90
59110;BME280;44895;47.438;18.978;2022-09-03T10:51:24;100161.22;;;22.68;56.24
59110;BME280;44895;47.438;18.978;2022-09-03T10:54:31;100145.41;;;22.99;56.09
59110;BME280;44895;47.438;18.978;2022-09-03T10:57:48;100139.53;;;23.04;52.69
59110;BME280;44895;47.438;18.978;2022-09-03T11:01:06;100136.19;;;23.22;51.85
59110;BME280;44895;47.438;18.978;2022-09-03T11:07:21;100140.78;;;23.10;53.63
59110;BME280;44895;47.438;18.978;2022-09-03T11:10:30;100139.13;;;23.02;53.11
59110;BME280;44895;47.438;18.978;2022-09-03T11:13:43;100130.75;;;22.99;51.51
59110;BME280;44895;47.438;18.978;2022-09-03T11:16:53;100139.00;;;23.25;52.49
59110;BME280;44895;47.438;18.978;2022-09-03T11:20:06;100144.16;;;23.27;53.49
59110;BME280;44895;47.438;18.978;2022-09-03T11:23:13;100135.75;;;23.54;54.49
59110;BME280;44895;47.438;18.978;2022-09-03T11:26:20;100134.25;;;23.64;53.15
59110;BME280;44895;47.438;18.978;2022-09-03T11:32:58;100137.16;;;23.78;51.07
59110;BME280;44895;47.438;18.978;2022-09-03T11:36:05;100139.78;;;23.60;48.93
59110;BME280;44895;47.438;18.978;2022-09-03T11:39:18;100139.63;;;23.45;47.06
59110;BME280;44895;47.438;18.978;2022-09-03T11:42:35;100138.41;;;23.84;48.48
59110;BME280;44895;47.438;18.978;2022-09-03T11:45:39;100136.66;;;23.69;47.57
59110;BME280;44895;47.438;18.978;2022-09-03T11:48:45;100135.75;;;23.54;48.45
59110;BME280;44895;47.438;18.978;2022-09-03T11:51:57;100144.75;;;23.85;49.09
59110;BME280;44895;47.438;18.978;2022-09-03T11:55:02;100138.63;;;23.65;48.42
59110;BME280;44895;47.438;18.978;2022-09-03T11:58:11;100141.78;;;24.04;50.55
59110;BME280;44895;47.438;18.978;2022-09-03T12:01:16;100142.00;;;23.47;48.09
59110;BME280;44895;47.438;18.978;2022-09-03T12:04:26;100146.22;;;23.75;49.37
59110;BME280;44895;47.438;18.978;2022-09-03T12:07:56;100141.88;;;23.74;49.37
59110;BME280;44895;47.438;18.978;2022-09-03T12:14:55;100147.06;;;23.79;49.60
59110;BME280;44895;47.438;18.978;2022-09-03T12:18:07;100139.63;;;23.87;48.59
59110;BME280;44895;47.438;18.978;2022-09-03T12:21:21;100137.88;;;24.16;50.31
59110;BME280;44895;47.438;18.978;2022-09-03T12:24:25;100133.84;;;24.06;49.53
59110;BME280;44895;47.438;18.978;2022-09-03T12:27:34;100133.94;;;24.17;48.20
59110;BME280;44895;47.438;18.978;2022-09-03T12:30:38;100134.75;;;24.21;48.97
59110;BME280;44895;47.438;18.978;2022-09-03T12:33:41;100129.25;;;24.29;50.38
59110;BME280;44895;47.438;18.978;2022-09-03T12:36:48;100123.66;;;24.21;49.09
59110;BME280;44895;47.438;18.978;2022-09-03T12:39:53;100122.00;;;24.09;49.67
59110;BME280;44895;47.438;18.978;2022-09-03T12:43:15;100126.09;;;24.30;50.35
59110;BME280;44895;47.438;18.978;2022-09-03T12:46:22;100118.13;;;24.25;48.62
59110;BME280;44895;47.438;18.978;2022-09-03T12:49:26;100125.25;;;24.22;48.90
59110;BME280;44895;47.438;18.978;2022-09-03T12:52:57;100129.91;;;24.07;48.58
59110;BME280;44895;47.438;18.978;2022-09-03T12:56:02;100133.41;;;24.01;48.54
59110;BME280;44895;47.438;18.978;2022-09-03T12:59:11;100133.16;;;23.72;50.77
59110;BME280;44895;47.438;18.978;2022-09-03T13:02:22;100130.47;;;23.41;50.13
59110;BME280;44895;47.438;18.978;2022-09-03T13:05:32;100133.69;;;23.43;50.52
59110;BME280;44895;47.438;18.978;2022-09-03T13:08:44;100132.56;;;23.52;50.83
59110;BME280;44895;47.438;18.978;2022-09-03T13:11:48;100113.28;;;23.66;49.31
59110;BME280;44895;47.438;18.978;2022-09-03T13:14:54;100107.72;;;23.66;49.31
59110;BME280;44895;47.438;18.978;2022-09-03T13:18:09;100106.53;;;23.60;48.81
59110;BME280;44895;47.438;18.978;2022-09-03T13:31:20;100110.31;;;23.44;48.50
59110;BME280;44895;47.438;18.978;2022-09-03T13:34:36;100110.38;;;23.52;48.58
59110;BME280;44895;47.438;18.978;2022-09-03T13:42:02;100107.13;;;23.42;47.65
59110;BME280;44895;47.438;18.978;2022-09-03T13:48:35;100112.16;;;23.29;47.32
59110;BME280;44895;47.438;18.978;2022-09-03T13:52:01;100095.97;;;23.35;48.38
59110;BME280;44895;47.438;18.978;2022-09-03T13:58:46;100092.31;;;23.24;47.86
59110;BME280;44895;47.438;18.978;2022-09-03T14:15:28;100081.19;;;23.20;48.15
59110;BME280;44895;47.438;18.978;2022-09-03T14:21:58;100089.44;;;23.17;48.86
59110;BME280;44895;47.438;18.978;2022-09-03T14:25:10;100083.47;;;23.15;48.21
59110;BME280;44895;47.438;18.978;2022-09-03T14:28:37;100084.38;;;23.22;48.52
59110;BME280;44895;47.438;18.978;2022-09-03T14:39:15;100082.81;;;22.91;49.96
59110;BME280;44895;47.438;18.978;2022-09-03T14:49:44;100058.66;;;22.88;49.43
59110;BME280;44895;47.438;18.978;2022-09-03T14:53:19;100070.16;;;22.90;49.34
59110;BME280;44895;47.438;18.978;2022-09-03T14:56:49;100078.06;;;22.91;49.69
59110;BME280;44895;47.438;18.978;2022-09-03T15:10:12;100076.78;;;22.82;47.63
59110;BME280;44895;47.438;18.978;2022-09-03T15:13:26;100071.69;;;22.87;48.68
59110;BME280;44895;47.438;18.978;2022-09-03T15:20:17;100074.75;;;22.78;49.71
59110;BME280;44895;47.438;18.978;2022-09-03T15:30:04;100075.09;;;22.73;50.41
59110;BME280;44895;47.438;18.978;2022-09-03T15:36:25;100070.13;;;22.56;49.49
59110;BME280;44895;47.438;18.978;2022-09-03T15:39:33;100061.47;;;22.57;50.39
59110;BME280;44895;47.438;18.978;2022-09-03T15:42:41;100062.25;;;22.58;50.40
59110;BME280;44895;47.438;18.978;2022-09-03T15:49:05;100072.09;;;22.55;51.07
59110;BME280;44895;47.438;18.978;2022-09-03T15:52:51;100072.06;;;22.52;50.37
59110;BME280;44895;47.438;18.978;2022-09-03T15:56:06;100076.81;;;22.51;51.20
59110;BME280;44895;47.438;18.978;2022-09-03T15:59:16;100066.84;;;22.46;51.20
59110;BME280;44895;47.438;18.978;2022-09-03T16:02:39;100066.41;;;22.44;50.89
59110;BME280;44895;47.438;18.978;2022-09-03T16:05:53;100065.19;;;22.42;51.68
59110;BME280;44895;47.438;18.978;2022-09-03T16:15:35;100060.63;;;22.26;54.05
59110;BME280;44895;47.438;18.978;2022-09-03T16:18:45;100063.34;;;22.23;53.80
59110;BME280;44895;47.438;18.978;2022-09-03T16:22:16;100070.78;;;22.19;54.10
59110;BME280;44895;47.438;18.978;2022-09-03T16:25:34;100065.97;;;22.12;54.92
59110;BME280;44895;47.438;18.978;2022-09-03T16:28:52;100079.34;;;22.10;55.13
59110;BME280;44895;47.438;18.978;2022-09-03T16:32:06;100079.22;;;22.03;56.38
59110;BME280;44895;47.438;18.978;2022-09-03T16:39:04;100077.16;;;21.96;56.38
59110;BME280;44895;47.438;18.978;2022-09-03T16:42:39;100082.16;;;21.87;57.29
59110;BME280;44895;47.438;18.978;2022-09-03T16:46:04;100079.66;;;21.78;59.37
59110;BME280;44895;47.438;18.978;2022-09-03T17:09:51;100098.63;;;20.94;67.87
59110;BME280;44895;47.438;18.978;2022-09-03T17:17:00;100103.75;;;20.56;69.92
59110;BME280;44895;47.438;18.978;2022-09-03T17:20:20;100110.63;;;20.46;70.05
59110;BME280;44895;47.438;18.978;2022-09-03T17:24:07;100109.22;;;20.36;70.12
59110;BME280;44895;47.438;18.978;2022-09-03T17:30:38;100115.56;;;20.05;72.28
59110;BME280;44895;47.438;18.978;2022-09-03T17:41:02;100121.78;;;19.70;73.95
59110;BME280;44895;47.438;18.978;2022-09-03T17:45:02;100123.38;;;19.55;74.59
59110;BME280;44895;47.438;18.978;2022-09-03T17:48:34;100131.94;;;19.37;75.06
59110;BME280;44895;47.438;18.978;2022-09-03T17:51:49;100125.16;;;19.19;75.45
59110;BME280;44895;47.438;18.978;2022-09-03T17:55:22;100127.88;;;19.03;76.37
59110;BME280;44895;47.438;18.978;2022-09-03T17:58:33;100133.72;;;18.89;76.48
59110;BME280;44895;47.438;18.978;2022-09-03T18:01:48;100138.13;;;18.78;77.41
59110;BME280;44895;47.438;18.978;2022-09-03T18:08:11;100143.38;;;18.95;78.18
59110;BME280;44895;47.438;18.978;2022-09-03T18:14:42;100153.63;;;18.45;80.68
59110;BME280;44895;47.438;18.978;2022-09-03T18:17:58;100158.22;;;18.53;81.35
59110;BME280;44895;47.438;18.978;2022-09-03T18:21:07;100159.81;;;18.54;81.18
59110;BME280;44895;47.438;18.978;2022-09-03T18:24:44;100165.22;;;18.51;81.76
59110;BME280;44895;47.438;18.978;2022-09-03T18:28:09;100166.13;;;18.30;81.28
59110;BME280;44895;47.438;18.978;2022-09-03T18:31:34;100171.38;;;18.35;82.02
59110;BME280;44895;47.438;18.978;2022-09-03T18:34:56;100172.09;;;18.32;82.40
59110;BME280;44895;47.438;18.978;2022-09-03T18:38:27;100181.03;;;18.29;83.74
59110;BME280;44895;47.438;18.978;2022-09-03T18:41:59;100175.75;;;18.24;84.10
59110;BME280;44895;47.438;18.978;2022-09-03T18:45:50;100177.69;;;18.23;84.62
59110;BME280;44895;47.438;18.978;2022-09-03T18:49:28;100180.25;;;17.83;88.31
59110;BME280;44895;47.438;18.978;2022-09-03T19:07:07;100182.69;;;17.51;92.14
59110;BME280;44895;47.438;18.978;2022-09-03T19:11:02;100188.72;;;17.44;93.16
59110;BME280;44895;47.438;18.978;2022-09-03T19:15:08;100183.38;;;17.26;94.77
59110;BME280;44895;47.438;18.978;2022-09-03T19:18:39;100186.88;;;17.15;95.14
59110;BME280;44895;47.438;18.978;2022-09-03T19:22:10;100179.84;;;17.26;94.26
59110;BME280;44895;47.438;18.978;2022-09-03T19:25:34;100182.53;;;17.14;96.73
59110;BME280;44895;47.438;18.978;2022-09-03T19:29:04;100186.56;;;16.95;98.32
59110;BME280;44895;47.438;18.978;2022-09-03T19:32:49;100188.66;;;16.89;99.14
59110;BME280;44895;47.438;18.978;2022-09-03T19:36:47;100185.28;;;16.92;98.62
59110;BME280;44895;47.438;18.978;2022-09-03T19:48:45;100198.56;;;16.82;99.90
59110;BME280;44895;47.438;18.978;2022-09-03T19:55:47;100207.81;;;16.68;100.00
59110;BME280;44895;47.438;18.978;2022-09-03T19:59:19;100199.00;;;16.62;100.00
59110;BME280;44895;47.438;18.978;2022-09-03T20:02:46;100204.47;;;16.62;100.00
59110;BME280;44895;47.438;18.978;2022-09-03T20:06:09;100217.06;;;16.63;100.00
59110;BME280;44895;47.438;18.978;2022-09-03T20:09:37;100216.91;;;16.60;100.00
59110;BME280;44895;47.438;18.978;2022-09-03T20:16:26;100230.31;;;16.53;100.00
59110;BME280;44895;47.438;18.978;2022-09-03T20:23:10;100228.94;;;16.38;100.00
59110;BME280;44895;47.438;18.978;2022-09-03T20:26:49;100236.44;;;16.20;100.00
59110;BME280;44895;47.438;18.978;2022-09-03T20:30:07;100236.63;;;16.06;100.00
59110;BME280;44895;47.438;18.978;2022-09-03T20:33:23;100231.88;;;15.85;100.00
59110;BME280;44895;47.438;18.978;2022-09-03T20:36:56;100240.22;;;15.80;100.00